createdAt,value
2023-02-01T00:00:39.396Z,1005
2023-02-01T00:01:39.390Z,1005.03
2023-02-01T00:02:39.372Z,1004.99
2023-02-01T00:03:39.368Z,1005.01
2023-02-01T00:04:39.357Z,1005.03
2023-02-01T00:05:39.366Z,1004.98
2023-02-01T00:06:39.350Z,1004.92
2023-02-01T00:07:39.319Z,1004.88
2023-02-01T00:08:39.315Z,1004.93
2023-02-01T00:09:39.320Z,1004.9
2023-02-01T00:10:39.348Z,1004.85
2023-02-01T00:11:39.327Z,1004.85
2023-02-01T00:12:39.268Z,1004.91
2023-02-01T00:13:39.256Z,1004.89
2023-02-01T00:14:39.263Z,1004.9
2023-02-01T00:15:39.344Z,1004.85
2023-02-01T00:16:39.236Z,1004.82
2023-02-01T00:17:39.226Z,1004.89
2023-02-01T00:18:39.210Z,1004.92
2023-02-01T00:19:39.194Z,1004.92
2023-02-01T00:20:39.184Z,1004.84
2023-02-01T00:21:39.173Z,1004.92
2023-02-01T00:22:39.172Z,1004.86
2023-02-01T00:23:39.152Z,1004.91
2023-02-01T00:24:39.142Z,1004.9
2023-02-01T00:25:39.136Z,1004.95
2023-02-01T00:26:39.117Z,1004.92
2023-02-01T00:27:39.108Z,1004.98
2023-02-01T00:28:39.107Z,1004.99
2023-02-01T00:29:39.098Z,1004.97
2023-02-01T00:30:39.086Z,1005
2023-02-01T00:31:39.074Z,1004.93
2023-02-01T00:32:39.063Z,1005
2023-02-01T00:33:39.046Z,1005
2023-02-01T00:34:39.088Z,1004.97
2023-02-01T00:35:39.030Z,1004.98
2023-02-01T00:36:39.067Z,1004.96
2023-02-01T00:37:39.011Z,1004.97
2023-02-01T00:38:39.047Z,1004.94
2023-02-01T00:39:39.035Z,1004.95
2023-02-01T00:40:39.025Z,1004.96
2023-02-01T00:41:38.975Z,1004.94
2023-02-01T00:42:38.956Z,1004.92
2023-02-01T00:43:38.943Z,1004.88
2023-02-01T00:44:38.928Z,1004.84
2023-02-01T00:45:38.929Z,1004.87
2023-02-01T00:46:38.914Z,1004.87
2023-02-01T00:47:38.899Z,1004.82
2023-02-01T00:48:38.890Z,1004.79
2023-02-01T00:49:38.872Z,1004.79
2023-02-01T00:50:38.865Z,1004.74
2023-02-01T00:51:38.890Z,1004.74
2023-02-01T00:52:38.869Z,1004.75
2023-02-01T00:53:38.839Z,1004.62
2023-02-01T00:54:38.836Z,1004.72
2023-02-01T00:55:38.811Z,1004.67
2023-02-01T00:56:38.804Z,1004.67
2023-02-01T00:57:38.791Z,1004.7
2023-02-01T00:58:38.777Z,1004.69
2023-02-01T00:59:38.768Z,1004.74
2023-02-01T01:00:38.763Z,1004.65
2023-02-01T01:01:38.750Z,1004.68
2023-02-01T01:02:38.742Z,1004.66
2023-02-01T01:03:38.727Z,1004.65
2023-02-01T01:04:38.714Z,1004.64
2023-02-01T01:05:38.743Z,1004.63
2023-02-01T01:06:38.694Z,1004.65
2023-02-01T01:07:38.683Z,1004.64
2023-02-01T01:08:38.674Z,1004.64
2023-02-01T01:09:38.659Z,1004.62
2023-02-01T01:10:38.654Z,1004.62
2023-02-01T01:11:38.643Z,1004.59
2023-02-01T01:12:38.654Z,1004.62
2023-02-01T01:13:38.657Z,1004.58
2023-02-01T01:14:38.613Z,1004.62
2023-02-01T01:15:38.599Z,1004.59
2023-02-01T01:16:38.600Z,1004.59
2023-02-01T01:17:38.582Z,1004.59
2023-02-01T01:18:38.571Z,1004.6
2023-02-01T01:19:38.554Z,1004.57
2023-02-01T01:20:38.551Z,1004.59
2023-02-01T01:21:38.536Z,1004.57
2023-02-01T01:22:38.528Z,1004.62
2023-02-01T01:23:38.514Z,1004.6
2023-02-01T01:24:38.507Z,1004.57
2023-02-01T01:25:38.489Z,1004.56
2023-02-01T01:26:38.486Z,1004.55
2023-02-01T01:27:38.471Z,1004.49
2023-02-01T01:28:38.480Z,1004.45
2023-02-01T01:29:38.449Z,1004.48
2023-02-01T01:30:38.441Z,1004.48
2023-02-01T01:31:38.439Z,1004.47
2023-02-01T01:32:38.420Z,1004.43
2023-02-01T01:33:38.417Z,1004.45
2023-02-01T01:34:38.398Z,1004.44
2023-02-01T01:35:38.383Z,1004.42
2023-02-01T01:36:38.374Z,1004.45
2023-02-01T01:37:38.363Z,1004.5
2023-02-01T01:38:38.351Z,1004.53
2023-02-01T01:39:38.350Z,1004.45
2023-02-01T01:40:38.342Z,1004.49
2023-02-01T01:41:38.325Z,1004.41
2023-02-01T01:42:38.318Z,1004.47
2023-02-01T01:43:38.303Z,1004.48
2023-02-01T01:44:38.288Z,1004.45
2023-02-01T01:45:38.278Z,1004.42
2023-02-01T01:46:38.383Z,1004.41
2023-02-01T01:47:38.255Z,1004.44
2023-02-01T01:48:38.244Z,1004.24
2023-02-01T01:49:38.238Z,1004.39
2023-02-01T01:50:38.230Z,1004.38
2023-02-01T01:51:38.246Z,1004.3
2023-02-01T01:52:38.203Z,1004.51
2023-02-01T01:53:38.198Z,1004.39
2023-02-01T01:54:38.196Z,1004.4
2023-02-01T01:55:38.171Z,1004.27
2023-02-01T01:56:38.167Z,1004.41
2023-02-01T01:57:38.151Z,1004.31
2023-02-01T01:58:38.139Z,1004.28
2023-02-01T01:59:38.131Z,1004.2
2023-02-01T02:00:38.129Z,1004.26
2023-02-01T02:01:38.128Z,1004.31
2023-02-01T02:02:38.096Z,1004.18
2023-02-01T02:03:38.090Z,1004.32
2023-02-01T02:04:38.079Z,1004.25
2023-02-01T02:05:38.069Z,1004.25
2023-02-01T02:06:38.058Z,1004.15
2023-02-01T02:07:38.042Z,1004.16
2023-02-01T02:08:38.041Z,1004.21
2023-02-01T02:09:38.034Z,1004.1
2023-02-01T02:10:38.015Z,1004.02
2023-02-01T02:11:38.004Z,1004
2023-02-01T02:12:37.998Z,1003.96
2023-02-01T02:13:37.982Z,1004.01
2023-02-01T02:14:37.972Z,1003.99
2023-02-01T02:15:37.959Z,1004
2023-02-01T02:16:37.951Z,1004.03
2023-02-01T02:17:37.940Z,1004.09
2023-02-01T02:18:37.931Z,1004.09
2023-02-01T02:19:37.920Z,1004.03
2023-02-01T02:20:37.921Z,1004.04
2023-02-01T02:21:37.918Z,1003.99
2023-02-01T02:22:37.890Z,1003.96
2023-02-01T02:23:37.878Z,1003.91
2023-02-01T02:24:37.858Z,1003.93
2023-02-01T02:25:37.850Z,1003.88
2023-02-01T02:26:37.848Z,1003.92
2023-02-01T02:27:37.833Z,1003.9
2023-02-01T02:28:37.823Z,1003.91
2023-02-01T02:29:37.812Z,1003.92
2023-02-01T02:30:37.910Z,1003.76
2023-02-01T02:31:37.787Z,1003.91
2023-02-01T02:32:37.789Z,1003.83
2023-02-01T02:33:37.766Z,1003.78
2023-02-01T02:34:37.757Z,1003.75
2023-02-01T02:35:37.750Z,1003.73
2023-02-01T02:36:37.736Z,1003.6
2023-02-01T02:37:37.723Z,1003.69
2023-02-01T02:38:37.715Z,1003.62
2023-02-01T02:39:37.700Z,1003.65
2023-02-01T02:40:37.690Z,1003.65
2023-02-01T02:41:37.685Z,1003.61
2023-02-01T02:42:37.666Z,1003.56
2023-02-01T02:43:37.664Z,1003.57
2023-02-01T02:44:37.645Z,1003.55
2023-02-01T02:45:37.650Z,1003.64
2023-02-01T02:46:37.633Z,1003.63
2023-02-01T02:47:37.627Z,1003.47
2023-02-01T02:48:37.622Z,1003.52
2023-02-01T02:49:37.598Z,1003.53
2023-02-01T02:50:37.587Z,1003.58
2023-02-01T02:51:37.574Z,1003.55
2023-02-01T02:52:37.565Z,1003.6
2023-02-01T02:53:37.563Z,1003.47
2023-02-01T02:54:37.538Z,1003.51
2023-02-01T02:55:37.546Z,1003.59
2023-02-01T02:56:37.520Z,1003.46
2023-02-01T02:57:37.510Z,1003.44
2023-02-01T02:58:37.506Z,1003.31
2023-02-01T02:59:37.491Z,1003.36
2023-02-01T03:00:37.479Z,1003.38
2023-02-01T03:01:37.472Z,1003.37
2023-02-01T03:02:37.458Z,1003.43
2023-02-01T03:03:37.446Z,1003.44
2023-02-01T03:04:37.435Z,1003.47
2023-02-01T03:05:37.424Z,1003.32
2023-02-01T03:06:37.414Z,1003.39
2023-02-01T03:07:37.415Z,1003.33
2023-02-01T03:08:37.391Z,1003.2
2023-02-01T03:09:37.379Z,1003.17
2023-02-01T03:10:37.372Z,1003.13
2023-02-01T03:11:37.369Z,1003.25
2023-02-01T03:12:37.348Z,1003.21
2023-02-01T03:13:37.354Z,1003.28
2023-02-01T03:14:37.331Z,1003.21
2023-02-01T03:15:37.318Z,1003.23
2023-02-01T03:16:37.310Z,1003.22
2023-02-01T03:17:37.293Z,1003.24
2023-02-01T03:18:37.293Z,1003.2
2023-02-01T03:19:37.271Z,1003.18
2023-02-01T03:20:37.261Z,1003.21
2023-02-01T03:21:37.255Z,1003.2
2023-02-01T03:22:37.239Z,1003.18
2023-02-01T03:23:37.236Z,1003.26
2023-02-01T03:24:37.224Z,1003.29
2023-02-01T03:25:37.210Z,1003.18
2023-02-01T03:26:37.203Z,1003.2
2023-02-01T03:27:37.189Z,1003.28
2023-02-01T03:28:37.178Z,1003.22
2023-02-01T03:29:37.177Z,1003.23
2023-02-01T03:30:37.174Z,1003.22
2023-02-01T03:31:37.146Z,1003.17
2023-02-01T03:32:37.140Z,1003.19
2023-02-01T03:33:37.127Z,1003.14
2023-02-01T03:34:37.117Z,1003.18
2023-02-01T03:35:37.106Z,1003.18
2023-02-01T03:36:37.097Z,1003.16
2023-02-01T03:37:37.099Z,1003.15
2023-02-01T03:38:37.072Z,1003.08
2023-02-01T03:39:37.072Z,1003.12
2023-02-01T03:40:37.048Z,1003.05
2023-02-01T03:41:37.042Z,1002.99
2023-02-01T03:42:37.033Z,1002.85
2023-02-01T03:43:37.016Z,1002.87
2023-02-01T03:44:37.008Z,1002.83
2023-02-01T03:45:36.998Z,1002.77
2023-02-01T03:46:36.984Z,1002.77
2023-02-01T03:47:36.976Z,1002.78
2023-02-01T03:48:36.972Z,1002.76
2023-02-01T03:49:36.974Z,1002.6
2023-02-01T03:50:36.953Z,1002.73
2023-02-01T03:51:36.931Z,1002.78
2023-02-01T03:52:36.955Z,1002.8
2023-02-01T03:53:36.917Z,1002.79
2023-02-01T03:54:36.910Z,1002.78
2023-02-01T03:55:36.897Z,1002.77
2023-02-01T03:56:36.881Z,1002.78
2023-02-01T03:57:36.869Z,1002.83
2023-02-01T03:58:36.861Z,1002.84
2023-02-01T03:59:36.854Z,1002.83
2023-02-01T04:00:36.840Z,1002.8
2023-02-01T04:01:36.843Z,1002.83
2023-02-01T04:02:36.820Z,1002.69
2023-02-01T04:03:36.808Z,1002.72
2023-02-01T04:04:36.798Z,1002.78
2023-02-01T04:05:36.783Z,1002.71
2023-02-01T04:06:36.776Z,1002.79
2023-02-01T04:07:36.767Z,1002.7
2023-02-01T04:08:36.753Z,1002.64
2023-02-01T04:09:36.744Z,1002.72
2023-02-01T04:10:36.735Z,1002.71
2023-02-01T04:11:36.720Z,1002.56
2023-02-01T04:12:36.714Z,1002.69
2023-02-01T04:13:36.711Z,1002.65
2023-02-01T04:14:36.689Z,1002.49
2023-02-01T04:15:36.681Z,1002.57
2023-02-01T04:16:36.671Z,1002.58
2023-02-01T04:18:36.646Z,1002.47
2023-02-01T04:19:36.644Z,1002.5
2023-02-01T04:20:36.626Z,1002.52
2023-02-01T04:21:36.617Z,1002.54
2023-02-01T04:22:36.607Z,1002.51
2023-02-01T04:23:36.595Z,1002.47
2023-02-01T04:24:36.583Z,1002.55
2023-02-01T04:25:36.574Z,1002.43
2023-02-01T04:26:36.566Z,1002.41
2023-02-01T04:27:36.554Z,1002.5
2023-02-01T04:28:36.545Z,1002.45
2023-02-01T04:29:36.534Z,1002.42
2023-02-01T04:30:36.527Z,1002.43
2023-02-01T04:31:36.526Z,1002.53
2023-02-01T04:32:36.498Z,1002.48
2023-02-01T04:33:36.497Z,1002.47
2023-02-01T04:34:36.480Z,1002.54
2023-02-01T04:35:36.469Z,1002.53
2023-02-01T04:36:36.457Z,1002.61
2023-02-01T04:37:36.462Z,1002.37
2023-02-01T04:38:36.440Z,1002.51
2023-02-01T04:39:36.424Z,1002.52
2023-02-01T04:40:36.414Z,1002.42
2023-02-01T04:41:36.408Z,1002.47
2023-02-01T04:42:36.393Z,1002.44
2023-02-01T04:43:36.397Z,1002.45
2023-02-01T04:44:36.375Z,1002.41
2023-02-01T04:45:36.368Z,1002.44
2023-02-01T04:46:36.355Z,1002.42
2023-02-01T04:47:36.346Z,1002.42
2023-02-01T04:48:36.335Z,1002.33
2023-02-01T04:49:36.330Z,1002.33
2023-02-01T04:50:36.312Z,1002.22
2023-02-01T04:51:36.302Z,1002.35
2023-02-01T04:52:36.290Z,1002.25
2023-02-01T04:53:36.280Z,1002.29
2023-02-01T04:54:36.271Z,1002.31
2023-02-01T04:55:36.289Z,1002.28
2023-02-01T04:56:36.268Z,1002.35
2023-02-01T04:57:36.238Z,1002.32
2023-02-01T04:58:36.228Z,1002.23
2023-02-01T04:59:36.220Z,1002.27
2023-02-01T05:00:36.210Z,1002.27
2023-02-01T05:01:36.205Z,1002.23
2023-02-01T05:02:36.183Z,1002.25
2023-02-01T05:03:36.176Z,1002.28
2023-02-01T05:04:36.165Z,1002.26
2023-02-01T05:05:36.159Z,1002.38
2023-02-01T05:06:36.140Z,1002.36
2023-02-01T05:07:36.144Z,1002.23
2023-02-01T05:08:36.124Z,1002.23
2023-02-01T05:09:36.112Z,1002.27
2023-02-01T05:10:36.102Z,1002.28
2023-02-01T05:11:36.086Z,1002.22
2023-02-01T05:12:36.090Z,1002.28
2023-02-01T05:13:36.080Z,1002.38
2023-02-01T05:14:36.059Z,1002.31
2023-02-01T05:15:36.051Z,1002.25
2023-02-01T05:16:36.057Z,1002.2
2023-02-01T05:17:36.036Z,1002.23
2023-02-01T05:18:36.030Z,1002.24
2023-02-01T05:19:36.007Z,1002.29
2023-02-01T05:20:35.994Z,1002.23
2023-02-01T05:21:36.014Z,1002.26
2023-02-01T05:22:35.987Z,1002.1
2023-02-01T05:23:35.965Z,1002.2
2023-02-01T05:24:35.975Z,1002.16
2023-02-01T05:25:35.948Z,1002.18
2023-02-01T05:26:35.933Z,1002.2
2023-02-01T05:27:35.929Z,1002.04
2023-02-01T05:28:35.919Z,1002.11
2023-02-01T05:29:35.901Z,1002.16
2023-02-01T05:30:35.891Z,1002.15
2023-02-01T05:31:35.879Z,1002.18
2023-02-01T05:32:35.875Z,1002.13
2023-02-01T05:33:35.865Z,1002.09
2023-02-01T05:34:35.850Z,1002.14
2023-02-01T05:35:35.839Z,1002.06
2023-02-01T05:36:35.824Z,1002.03
2023-02-01T05:37:35.814Z,1002.11
2023-02-01T05:38:35.807Z,1002.05
2023-02-01T05:39:35.795Z,1002.03
2023-02-01T05:40:35.784Z,1002.06
2023-02-01T05:41:35.786Z,1002.07
2023-02-01T05:42:35.760Z,1001.91
2023-02-01T05:43:35.751Z,1001.95
2023-02-01T05:44:35.740Z,1002
2023-02-01T05:45:35.729Z,1001.88
2023-02-01T05:46:35.725Z,1001.93
2023-02-01T05:47:35.715Z,1002
2023-02-01T05:48:35.700Z,1001.9
2023-02-01T05:49:35.690Z,1002
2023-02-01T05:50:35.682Z,1001.94
2023-02-01T05:51:35.670Z,1001.91
2023-02-01T05:52:35.662Z,1001.95
2023-02-01T05:53:35.650Z,1001.86
2023-02-01T05:54:35.668Z,1001.9
2023-02-01T05:55:35.641Z,1001.85
2023-02-01T05:56:35.639Z,1001.95
2023-02-01T05:57:35.606Z,1001.91
2023-02-01T05:58:35.595Z,1001.98
2023-02-01T05:59:35.593Z,1001.97
2023-02-01T06:00:35.574Z,1001.99
2023-02-01T06:01:35.562Z,1001.87
2023-02-01T06:02:35.549Z,1001.82
2023-02-01T06:03:35.542Z,1001.79
2023-02-01T06:04:35.537Z,1001.93
2023-02-01T06:05:35.528Z,1001.87
2023-02-01T06:06:35.515Z,1001.78
2023-02-01T06:07:35.499Z,1001.85
2023-02-01T06:08:35.485Z,1001.82
2023-02-01T06:09:35.475Z,1001.69
2023-02-01T06:10:35.473Z,1001.73
2023-02-01T06:11:35.457Z,1001.75
2023-02-01T06:12:35.444Z,1001.77
2023-02-01T06:13:35.435Z,1001.73
2023-02-01T06:14:35.426Z,1001.69
2023-02-01T06:15:35.417Z,1001.78
2023-02-01T06:16:35.402Z,1001.69
2023-02-01T06:17:35.411Z,1001.63
2023-02-01T06:18:35.385Z,1001.7
2023-02-01T06:19:35.371Z,1001.76
2023-02-01T06:20:35.364Z,1001.75
2023-02-01T06:21:35.354Z,1001.53
2023-02-01T06:22:35.340Z,1001.77
2023-02-01T06:23:35.330Z,1001.67
2023-02-01T06:24:35.318Z,1001.8
2023-02-01T06:25:35.309Z,1001.82
2023-02-01T06:26:35.298Z,1001.78
2023-02-01T06:27:35.283Z,1001.85
2023-02-01T06:28:35.300Z,1001.79
2023-02-01T06:29:35.270Z,1001.77
2023-02-01T06:30:35.268Z,1001.68
2023-02-01T06:31:35.247Z,1001.76
2023-02-01T06:32:35.233Z,1001.84
2023-02-01T06:33:35.228Z,1001.84
2023-02-01T06:34:35.210Z,1001.81
2023-02-01T06:35:35.202Z,1001.79
2023-02-01T06:36:35.197Z,1001.75
2023-02-01T06:37:35.179Z,1001.82
2023-02-01T06:38:35.166Z,1001.83
2023-02-01T06:39:35.161Z,1001.89
2023-02-01T06:40:35.152Z,1001.94
2023-02-01T06:41:35.148Z,1001.87
2023-02-01T06:42:35.128Z,1002.03
2023-02-01T06:43:35.114Z,1001.96
2023-02-01T06:44:35.112Z,1001.96
2023-02-01T06:45:35.109Z,1001.93
2023-02-01T06:46:35.083Z,1001.93
2023-02-01T06:47:35.080Z,1001.99
2023-02-01T06:48:35.077Z,1001.95
2023-02-01T06:49:35.055Z,1001.81
2023-02-01T06:50:35.043Z,1001.94
2023-02-01T06:51:35.041Z,1001.96
2023-02-01T06:52:35.043Z,1002.02
2023-02-01T06:53:35.010Z,1002.03
2023-02-01T06:54:35.007Z,1002.08
2023-02-01T06:55:34.991Z,1002.16
2023-02-01T06:56:34.977Z,1001.98
2023-02-01T06:57:34.984Z,1002.2
2023-02-01T06:58:34.976Z,1002.19
2023-02-01T06:59:34.949Z,1002.22
2023-02-01T07:00:34.937Z,1002.24
2023-02-01T07:01:34.932Z,1002.31
2023-02-01T07:02:34.913Z,1002.23
2023-02-01T07:03:34.904Z,1002.23
2023-02-01T07:04:34.896Z,1002.29
2023-02-01T07:05:34.884Z,1002.2
2023-02-01T07:06:34.875Z,1002.24
2023-02-01T07:07:34.872Z,1002.24
2023-02-01T07:08:34.911Z,1002.12
2023-02-01T07:09:34.847Z,1002.17
2023-02-01T07:10:34.836Z,1002.27
2023-02-01T07:11:34.829Z,1002.21
2023-02-01T07:12:34.811Z,1002.21
2023-02-01T07:13:34.800Z,1002.26
2023-02-01T07:14:34.789Z,1002.3
2023-02-01T07:15:34.778Z,1002.24
2023-02-01T07:16:34.770Z,1002.27
2023-02-01T07:17:34.763Z,1002.26
2023-02-01T07:18:34.751Z,1002.24
2023-02-01T07:19:34.740Z,1002.2
2023-02-01T07:20:34.726Z,1002.3
2023-02-01T07:21:34.716Z,1002.17
2023-02-01T07:22:34.704Z,1002.27
2023-02-01T07:23:34.694Z,1002.32
2023-02-01T07:24:34.698Z,1002.39
2023-02-01T07:25:34.671Z,1002.46
2023-02-01T07:26:34.678Z,1002.47
2023-02-01T07:27:34.650Z,1002.44
2023-02-01T07:28:34.645Z,1002.47
2023-02-01T07:29:34.642Z,1002.4
2023-02-01T07:30:34.701Z,1002.53
2023-02-01T07:31:34.630Z,1002.47
2023-02-01T07:32:34.598Z,1002.54
2023-02-01T07:33:34.589Z,1002.43
2023-02-01T07:34:34.586Z,1002.44
2023-02-01T07:35:34.571Z,1002.46
2023-02-01T07:36:34.570Z,1002.34
2023-02-01T07:37:34.547Z,1002.5
2023-02-01T07:38:34.548Z,1002.47
2023-02-01T07:39:34.523Z,1002.48
2023-02-01T07:40:34.515Z,1002.5
2023-02-01T07:41:34.504Z,1002.55
2023-02-01T07:42:34.515Z,1002.57
2023-02-01T07:43:34.481Z,1002.53
2023-02-01T07:44:34.476Z,1002.54
2023-02-01T07:45:34.510Z,1002.45
2023-02-01T07:46:34.452Z,1002.56
2023-02-01T07:47:34.465Z,1002.62
2023-02-01T07:48:34.568Z,1002.66
2023-02-01T07:49:34.432Z,1002.71
2023-02-01T07:50:34.413Z,1002.67
2023-02-01T07:51:34.419Z,1002.57
2023-02-01T07:52:34.392Z,1002.54
2023-02-01T07:53:34.379Z,1002.55
2023-02-01T07:54:34.549Z,1002.61
2023-02-01T07:55:34.360Z,1002.57
2023-02-01T07:56:34.351Z,1002.65
2023-02-01T07:57:34.363Z,1002.57
2023-02-01T07:58:34.326Z,1002.52
2023-02-01T07:59:34.325Z,1002.68
2023-02-01T08:00:34.307Z,1002.67
2023-02-01T08:01:34.328Z,1002.58
2023-02-01T08:02:34.279Z,1002.56
2023-02-01T08:03:34.271Z,1002.65
2023-02-01T08:04:34.261Z,1002.59
2023-02-01T08:05:34.260Z,1002.68
2023-02-01T08:06:34.243Z,1002.72
2023-02-01T08:07:34.242Z,1002.81
2023-02-01T08:08:34.223Z,1002.69
2023-02-01T08:09:34.210Z,1002.69
2023-02-01T08:10:34.198Z,1002.69
2023-02-01T08:11:34.193Z,1002.51
2023-02-01T08:12:34.175Z,1002.71
2023-02-01T08:13:34.190Z,1002.61
2023-02-01T08:14:34.162Z,1002.47
2023-02-01T08:15:34.151Z,1002.58
2023-02-01T08:16:34.147Z,1002.76
2023-02-01T08:17:34.137Z,1002.72
2023-02-01T08:18:34.117Z,1002.68
2023-02-01T08:19:34.105Z,1002.71
2023-02-01T08:20:34.095Z,1002.71
2023-02-01T08:21:34.142Z,1002.81
2023-02-01T08:22:34.089Z,1002.84
2023-02-01T08:23:34.061Z,1002.82
2023-02-01T08:24:34.069Z,1002.81
2023-02-01T08:25:34.040Z,1002.76
2023-02-01T08:26:34.032Z,1002.69
2023-02-01T08:27:34.019Z,1002.82
2023-02-01T08:28:35.019Z,1002.8
2023-02-01T08:29:34.002Z,1002.9
2023-02-01T08:30:33.988Z,1002.81
2023-02-01T08:31:33.983Z,1002.89
2023-02-01T08:32:33.966Z,1002.82
2023-02-01T08:33:33.964Z,1002.91
2023-02-01T08:34:33.955Z,1002.77
2023-02-01T08:35:33.967Z,1002.79
2023-02-01T08:36:33.931Z,1002.87
2023-02-01T08:37:33.915Z,1003.01
2023-02-01T08:38:33.908Z,1002.94
2023-02-01T08:39:33.898Z,1002.91
2023-02-01T08:40:33.939Z,1002.9
2023-02-01T08:41:33.875Z,1002.85
2023-02-01T08:42:33.866Z,1002.85
2023-02-01T08:43:33.852Z,1002.82
2023-02-01T08:44:33.841Z,1002.82
2023-02-01T08:45:33.838Z,1002.78
2023-02-01T08:46:33.823Z,1002.85
2023-02-01T08:47:33.810Z,1002.85
2023-02-01T08:48:33.797Z,1002.76
2023-02-01T08:49:33.788Z,1002.8
2023-02-01T08:50:33.780Z,1002.74
2023-02-01T08:51:33.777Z,1002.8
2023-02-01T08:52:33.768Z,1002.81
2023-02-01T08:53:33.750Z,1002.87
2023-02-01T08:54:33.735Z,1002.75
2023-02-01T08:55:33.731Z,1002.79
2023-02-01T08:56:33.718Z,1002.75
2023-02-01T08:57:33.704Z,1002.73
2023-02-01T08:58:33.702Z,1002.95
2023-02-01T08:59:33.682Z,1002.75
2023-02-01T09:00:33.670Z,1002.78
2023-02-01T09:01:33.663Z,1002.86
2023-02-01T09:02:33.658Z,1002.87
2023-02-01T09:03:33.640Z,1002.92
2023-02-01T09:04:33.633Z,1002.79
2023-02-01T09:05:33.669Z,1002.89
2023-02-01T09:06:33.614Z,1002.91
2023-02-01T09:07:33.599Z,1002.92
2023-02-01T09:08:33.591Z,1002.87
2023-02-01T09:09:33.580Z,1002.84
2023-02-01T09:10:33.565Z,1002.82
2023-02-01T09:11:33.558Z,1002.86
2023-02-01T09:12:33.550Z,1002.8
2023-02-01T09:13:33.533Z,1002.95
2023-02-01T09:14:33.524Z,1002.82
2023-02-01T09:15:33.515Z,1002.89
2023-02-01T09:16:33.502Z,1002.94
2023-02-01T09:17:33.495Z,1002.91
2023-02-01T09:18:33.526Z,1002.97
2023-02-01T09:19:33.467Z,1002.9
2023-02-01T09:20:33.468Z,1002.86
2023-02-01T09:21:33.449Z,1002.83
2023-02-01T09:22:33.454Z,1002.95
2023-02-01T09:23:33.426Z,1002.84
2023-02-01T09:24:33.429Z,1002.95
2023-02-01T09:25:33.407Z,1002.82
2023-02-01T09:26:33.391Z,1002.79
2023-02-01T09:27:33.400Z,1002.8
2023-02-01T09:28:33.385Z,1002.82
2023-02-01T09:29:33.361Z,1002.84
2023-02-01T09:30:33.353Z,1002.83
2023-02-01T09:31:33.354Z,1002.88
2023-02-01T09:32:33.334Z,1002.85
2023-02-01T09:33:33.321Z,1002.82
2023-02-01T09:34:33.315Z,1002.73
2023-02-01T09:35:33.300Z,1002.91
2023-02-01T09:36:33.289Z,1002.85
2023-02-01T09:37:33.284Z,1002.88
2023-02-01T09:38:33.274Z,1003.04
2023-02-01T09:39:33.257Z,1002.85
2023-02-01T09:40:33.250Z,1002.84
2023-02-01T09:41:33.240Z,1002.78
2023-02-01T09:42:33.228Z,1002.93
2023-02-01T09:43:33.214Z,1002.76
2023-02-01T09:44:33.210Z,1002.78
2023-02-01T09:45:33.196Z,1002.93
2023-02-01T09:46:33.191Z,1002.85
2023-02-01T09:47:33.169Z,1002.76
2023-02-01T09:48:33.165Z,1002.88
2023-02-01T09:49:33.152Z,1002.84
2023-02-01T09:50:33.170Z,1002.76
2023-02-01T09:51:33.133Z,1002.77
2023-02-01T09:52:33.122Z,1002.78
2023-02-01T09:53:33.111Z,1002.76
2023-02-01T09:54:33.120Z,1002.77
2023-02-01T09:55:33.092Z,1002.76
2023-02-01T09:56:33.074Z,1002.7
2023-02-01T09:57:33.072Z,1002.71
2023-02-01T09:58:33.068Z,1002.76
2023-02-01T09:59:33.045Z,1002.89
2023-02-01T10:00:33.052Z,1002.8
2023-02-01T10:01:33.021Z,1002.93
2023-02-01T10:02:33.026Z,1002.89
2023-02-01T10:03:33.012Z,1002.98
2023-02-01T10:04:32.991Z,1002.96
2023-02-01T10:05:33.001Z,1002.92
2023-02-01T10:06:33.047Z,1002.83
2023-02-01T10:07:32.956Z,1002.91
2023-02-01T10:08:32.952Z,1002.94
2023-02-01T10:09:32.940Z,1002.83
2023-02-01T10:10:32.945Z,1002.8
2023-02-01T10:11:32.920Z,1002.9
2023-02-01T10:12:32.907Z,1002.86
2023-02-01T10:13:32.905Z,1002.93
2023-02-01T10:14:32.887Z,1002.94
2023-02-01T10:15:32.883Z,1002.9
2023-02-01T10:16:32.864Z,1002.74
2023-02-01T10:17:32.854Z,1002.89
2023-02-01T10:18:32.853Z,1002.9
2023-02-01T10:19:33.019Z,1002.84
2023-02-01T10:20:32.838Z,1002.78
2023-02-01T10:21:32.809Z,1002.79
2023-02-01T10:22:32.798Z,1002.74
2023-02-01T10:23:32.790Z,1002.74
2023-02-01T10:24:32.782Z,1002.69
2023-02-01T10:25:32.770Z,1002.8
2023-02-01T10:26:32.760Z,1002.76
2023-02-01T10:27:32.784Z,1002.68
2023-02-01T10:28:32.734Z,1002.67
2023-02-01T10:29:32.725Z,1002.56
2023-02-01T10:30:32.728Z,1002.71
2023-02-01T10:31:32.701Z,1002.62
2023-02-01T10:32:32.691Z,1002.76
2023-02-01T10:33:32.688Z,1002.64
2023-02-01T10:34:32.669Z,1002.71
2023-02-01T10:35:32.666Z,1002.65
2023-02-01T10:36:32.654Z,1002.63
2023-02-01T10:37:32.639Z,1002.63
2023-02-01T10:38:32.632Z,1002.65
2023-02-01T10:39:32.655Z,1002.5
2023-02-01T10:40:32.608Z,1002.56
2023-02-01T10:41:32.600Z,1002.63
2023-02-01T10:42:32.593Z,1002.54
2023-02-01T10:43:32.576Z,1002.59
2023-02-01T10:44:32.568Z,1002.61
2023-02-01T10:45:32.556Z,1002.49
2023-02-01T10:46:32.552Z,1002.49
2023-02-01T10:47:32.537Z,1002.4
2023-02-01T10:48:32.526Z,1002.5
2023-02-01T10:49:32.523Z,1002.53
2023-02-01T10:50:32.497Z,1002.52
2023-02-01T10:51:32.522Z,1002.48
2023-02-01T10:52:32.478Z,1002.38
2023-02-01T10:53:32.466Z,1002.48
2023-02-01T10:54:32.463Z,1002.39
2023-02-01T10:55:32.455Z,1002.59
2023-02-01T10:56:32.436Z,1002.46
2023-02-01T10:57:32.425Z,1002.51
2023-02-01T10:58:32.476Z,1002.45
2023-02-01T10:59:32.408Z,1002.56
2023-02-01T11:00:32.394Z,1002.48
2023-02-01T11:01:32.383Z,1002.49
2023-02-01T11:02:32.381Z,1002.4
2023-02-01T11:03:32.360Z,1002.48
2023-02-01T11:04:32.367Z,1002.48
2023-02-01T11:05:32.352Z,1002.35
2023-02-01T11:06:32.332Z,1002.43
2023-02-01T11:07:32.318Z,1002.33
2023-02-01T11:08:32.306Z,1002.33
2023-02-01T11:09:32.297Z,1002.3
2023-02-01T11:10:32.290Z,1002.29
2023-02-01T11:11:32.276Z,1002.31
2023-02-01T11:12:32.279Z,1002.22
2023-02-01T11:13:32.258Z,1002.33
2023-02-01T11:14:32.244Z,1002.23
2023-02-01T11:15:32.253Z,1002.25
2023-02-01T11:16:32.290Z,1002.2
2023-02-01T11:17:32.212Z,1002.21
2023-02-01T11:18:32.211Z,1002.25
2023-02-01T11:19:32.196Z,1002.16
2023-02-01T11:20:32.184Z,1002.17
2023-02-01T11:21:32.169Z,1002.14
2023-02-01T11:22:32.163Z,1002.18
2023-02-01T11:23:32.168Z,1002.08
2023-02-01T11:24:32.167Z,1002.11
2023-02-01T11:25:32.131Z,1002.09
2023-02-01T11:26:32.121Z,1002.2
2023-02-01T11:27:32.108Z,1002
2023-02-01T11:28:32.105Z,1002.02
2023-02-01T11:29:32.089Z,1002.05
2023-02-01T11:30:32.075Z,1002
2023-02-01T11:31:32.064Z,1002
2023-02-01T11:32:32.062Z,1001.96
2023-02-01T11:33:32.046Z,1001.84
2023-02-01T11:34:32.031Z,1001.81
2023-02-01T11:35:32.023Z,1001.81
2023-02-01T11:36:32.016Z,1001.7
2023-02-01T11:37:32.061Z,1001.7
2023-02-01T11:38:31.996Z,1001.72
2023-02-01T12:01:24.199Z,1001.3
2023-02-01T12:02:24.221Z,1001.32
2023-02-01T12:03:24.294Z,1001.27
2023-02-01T12:04:24.207Z,1001.23
2023-02-01T12:05:24.505Z,1000.92
2023-02-01T12:06:24.153Z,1001.27
2023-02-01T12:07:24.184Z,1001.21
2023-02-01T12:08:24.155Z,1001.29
2023-02-01T12:09:24.136Z,1001.31
2023-02-01T12:10:24.121Z,1001.24
2023-02-01T12:11:24.112Z,1001.16
2023-02-01T12:12:24.094Z,1001.23
2023-02-01T12:13:24.088Z,1001.17
2023-02-01T12:14:24.068Z,1001.15
2023-02-01T12:15:24.048Z,1001.22
2023-02-01T12:16:24.051Z,1001.27
2023-02-01T12:17:24.046Z,1001.2
2023-02-01T12:18:24.017Z,1001.16
2023-02-01T12:19:24.009Z,1001.09
2023-02-01T12:20:24.010Z,1001.16
2023-02-01T12:21:24.007Z,1001.18
2023-02-01T12:22:24.209Z,1001.1
2023-02-01T12:23:24.981Z,1001.14
2023-02-01T12:24:24.022Z,1001.12
2023-02-01T12:25:24.951Z,1001.15
2023-02-01T12:26:24.817Z,1001.12
2023-02-01T12:27:23.928Z,1001.04
2023-02-01T12:28:23.970Z,1001.16
2023-02-01T12:29:23.905Z,1001.17
2023-02-01T12:30:23.908Z,1001.28
2023-02-01T12:31:23.892Z,1001.25